createdAt,value
2023-01-21T00:01:14.771Z,100573.40
2023-01-21T00:03:41.879Z,100573.12
2023-01-21T00:06:09.234Z,100572.48
2023-01-21T00:08:36.230Z,100574.89
2023-01-21T00:11:14.669Z,100577.85
2023-01-21T00:13:42.337Z,100581.20
2023-01-21T00:16:09.817Z,100580.98
2023-01-21T00:18:37.141Z,100583.08
2023-01-21T00:21:04.248Z,100579.88
2023-01-21T00:23:31.293Z,100575.45
2023-01-21T00:26:02.590Z,100570.77
2023-01-21T00:28:30.756Z,100576.23
2023-01-21T00:31:01.935Z,100578.21
2023-01-21T00:33:29.077Z,100578.58
2023-01-21T00:36:02.326Z,100576.41
2023-01-21T00:38:29.704Z,100576.83
2023-01-21T00:41:26.888Z,100579.21
2023-01-21T00:43:53.861Z,100580.63
2023-01-21T00:46:20.956Z,100582.09
2023-01-21T00:48:48.005Z,100582.54
2023-01-21T00:51:14.986Z,100583.38
2023-01-21T00:53:42.302Z,100586.39
2023-01-21T00:56:11.294Z,100583.49
2023-01-21T00:58:38.600Z,100586.65
2023-01-21T01:01:09.741Z,100589.42
2023-01-21T01:03:37.496Z,100587.11
2023-01-21T01:06:09.710Z,100590.75
2023-01-21T01:08:36.721Z,100585.61
2023-01-21T01:11:03.883Z,100583.11
2023-01-21T01:13:30.953Z,100582.41
2023-01-21T01:15:58.980Z,100581.34
2023-01-21T01:18:26.789Z,100583.69
2023-01-21T01:20:55.051Z,100573.20
2023-01-21T01:23:22.112Z,100566.62
2023-01-21T01:26:00.452Z,100565.18
2023-01-21T01:28:27.962Z,100565.09
2023-01-21T01:30:55.182Z,100564.59
2023-01-21T01:33:22.317Z,100563.80
2023-01-21T01:35:49.689Z,100556.06
2023-01-21T01:38:17.508Z,100557.48
2023-01-21T01:40:45.613Z,100563.84
2023-01-21T01:43:19.587Z,100560.35
2023-01-21T01:45:47.747Z,100558.89
2023-01-21T01:48:18.135Z,100555.04
2023-01-21T01:50:45.160Z,100552.77
2023-01-21T01:53:12.153Z,100549.94
2023-01-21T01:55:39.176Z,100553.85
2023-01-21T01:58:08.157Z,100546.90
2023-01-21T02:00:35.312Z,100556.24
2023-01-21T02:03:21.819Z,100557.58
2023-01-21T02:05:48.868Z,100556.55
2023-01-21T02:08:15.867Z,100552.49
2023-01-21T02:10:42.825Z,100551.46
2023-01-21T02:13:09.790Z,100554.42
2023-01-21T02:15:50.617Z,100545.17
2023-01-21T02:18:24.004Z,100544.89
2023-01-21T02:21:50.771Z,100551.52
2023-01-21T02:25:06.235Z,100559.73
2023-01-21T02:27:44.965Z,100563.95
2023-01-21T02:30:30.939Z,100569.95
2023-01-21T02:33:16.886Z,100585.82
2023-01-21T02:35:48.837Z,100591.14
2023-01-21T02:38:15.656Z,100590.15
2023-01-21T02:40:55.606Z,100588.38
2023-01-21T02:43:32.521Z,100591.56
2023-01-21T02:46:29.033Z,100599.64
2023-01-21T02:49:15.207Z,100607.33
2023-01-21T02:51:47.086Z,100603.67
2023-01-21T02:54:42.656Z,100609.56
2023-01-21T02:57:12.118Z,100616.33
2023-01-21T02:59:40.146Z,100611.17
2023-01-21T03:02:30.514Z,100600.08
2023-01-21T03:05:26.958Z,100592.34
2023-01-21T03:08:06.044Z,100588.48
2023-01-21T03:10:39.044Z,100580.73
2023-01-21T03:13:09.641Z,100564.02
2023-01-21T03:15:56.992Z,100564.17
2023-01-21T03:18:36.826Z,100568.52
2023-01-21T03:21:06.331Z,100565.27
2023-01-21T03:23:35.746Z,100551.30
2023-01-21T03:26:02.871Z,100565.13
2023-01-21T03:28:32.230Z,100580.77
2023-01-21T03:31:05.092Z,100579.86
2023-01-21T03:33:34.218Z,100570.94
2023-01-21T03:36:01.962Z,100566.80
2023-01-21T03:38:32.048Z,100573.36
2023-01-21T03:41:07.950Z,100592.14
2023-01-21T03:43:34.938Z,100579.73
2023-01-21T03:46:09.362Z,100580.27
2023-01-21T03:49:01.517Z,100579.67
2023-01-21T03:51:37.110Z,100569.91
2023-01-21T03:54:04.162Z,100576.23
2023-01-21T03:56:31.324Z,100569.05
2023-01-21T03:58:58.250Z,100566.41
2023-01-21T04:01:25.260Z,100578.84
2023-01-21T04:03:52.353Z,100576.77
2023-01-21T04:06:21.775Z,100579.23
2023-01-21T04:08:48.829Z,100583.55
2023-01-21T04:11:16.322Z,100584.38
2023-01-21T04:13:43.331Z,100585.83
2023-01-21T04:16:10.381Z,100589.96
2023-01-21T04:18:37.751Z,100596.58
2023-01-21T04:21:04.716Z,100595.63
2023-01-21T04:23:32.180Z,100609.83
2023-01-21T04:25:59.182Z,100617.20
2023-01-21T04:28:26.141Z,100597.68
2023-01-21T04:30:54.320Z,100596.71
2023-01-21T04:33:21.926Z,100603.71
2023-01-21T04:35:48.915Z,100612.41
2023-01-21T04:38:16.009Z,100610.80
2023-01-21T04:40:43.049Z,100615.38
2023-01-21T04:43:10.073Z,100608.02
2023-01-21T04:45:37.135Z,100608.42
2023-01-21T04:48:04.234Z,100606.04
2023-01-21T04:50:31.228Z,100605.73
2023-01-21T04:53:01.208Z,100607.40
2023-01-21T04:55:30.640Z,100600.13
2023-01-21T04:57:57.630Z,100600.13
2023-01-21T05:00:24.732Z,100603.99
2023-01-21T05:02:51.752Z,100603.59
2023-01-21T05:05:20.054Z,100606.07
2023-01-21T05:07:47.240Z,100603.70
2023-01-21T05:10:18.055Z,100609.98
2023-01-21T05:12:45.236Z,100610.98
2023-01-21T05:15:12.248Z,100597.84
2023-01-21T05:17:39.267Z,100599.86
2023-01-21T05:20:06.781Z,100604.92
2023-01-21T05:22:33.844Z,100600.92
2023-01-21T05:25:00.945Z,100601.30
2023-01-21T05:27:28.170Z,100592.41
2023-01-21T05:29:59.814Z,100590.60
2023-01-21T05:32:26.811Z,100591.09
2023-01-21T05:34:53.837Z,100607.92
2023-01-21T05:37:20.794Z,100612.40
2023-01-21T05:39:47.852Z,100614.48
2023-01-21T05:42:14.843Z,100621.48
2023-01-21T05:44:41.856Z,100623.11
2023-01-21T05:47:09.117Z,100618.14
2023-01-21T05:49:36.179Z,100635.75
2023-01-21T05:52:03.181Z,100621.11
2023-01-21T05:54:30.260Z,100618.17
2023-01-21T05:56:57.281Z,100632.52
2023-01-21T05:59:25.036Z,100616.94
2023-01-21T06:01:52.498Z,100615.13
2023-01-21T06:04:19.551Z,100618.57
2023-01-21T06:06:46.544Z,100612.45
2023-01-21T06:09:14.160Z,100615.10
2023-01-21T06:11:42.341Z,100623.48
2023-01-21T06:14:09.381Z,100615.59
2023-01-21T06:16:36.440Z,100616.66
2023-01-21T06:19:03.510Z,100624.79
2023-01-21T06:21:30.545Z,100632.44
2023-01-21T06:23:57.666Z,100635.77
2023-01-21T06:26:26.963Z,100632.21
2023-01-21T06:28:57.207Z,100622.54
2023-01-21T06:31:24.492Z,100627.23
2023-01-21T06:33:51.497Z,100629.25
2023-01-21T06:36:18.689Z,100623.63
2023-01-21T06:38:45.674Z,100625.10
2023-01-21T06:41:12.697Z,100627.10
2023-01-21T06:43:39.686Z,100626.80
2023-01-21T06:46:10.301Z,100633.75
2023-01-21T06:48:37.625Z,100636.27
2023-01-21T06:51:04.807Z,100631.45
2023-01-21T06:53:31.791Z,100630.80
2023-01-21T06:55:58.734Z,100634.19
2023-01-21T06:58:25.766Z,100626.02
2023-01-21T07:00:56.570Z,100636.50
2023-01-21T07:03:23.617Z,100636.64
2023-01-21T07:05:50.623Z,100638.43
2023-01-21T07:08:17.543Z,100650.45
2023-01-21T07:10:47.462Z,100661.44
2023-01-21T07:13:14.782Z,100660.05
2023-01-21T07:15:43.975Z,100671.35
2023-01-21T07:18:11.104Z,100684.54
2023-01-21T07:20:40.921Z,100684.19
2023-01-21T07:23:08.565Z,100686.98
2023-01-21T07:25:37.554Z,100691.21
2023-01-21T07:28:04.697Z,100691.34
2023-01-21T07:30:31.735Z,100695.64
2023-01-21T07:32:58.741Z,100697.29
2023-01-21T07:35:25.789Z,100696.01
2023-01-21T07:37:53.011Z,100701.64
2023-01-21T07:40:20.128Z,100708.58
2023-01-21T07:42:54.158Z,100712.84
2023-01-21T07:45:21.809Z,100723.10
2023-01-21T07:47:49.280Z,100728.90
2023-01-21T07:50:17.131Z,100735.20
2023-01-21T07:52:44.140Z,100733.19
2023-01-21T07:55:12.741Z,100741.66
2023-01-21T07:57:39.952Z,100743.63
2023-01-21T08:00:07.400Z,100737.95
2023-01-21T08:02:39.066Z,100737.11
2023-01-21T08:05:08.360Z,100738.02
2023-01-21T08:07:35.364Z,100744.47
2023-01-21T08:10:02.556Z,100742.80
2023-01-21T08:12:29.639Z,100738.57
2023-01-21T08:15:00.799Z,100743.08
2023-01-21T08:17:27.817Z,100741.24
2023-01-21T08:19:54.836Z,100737.52
2023-01-21T08:22:22.295Z,100742.33
2023-01-21T08:24:49.353Z,100747.13
2023-01-21T08:27:16.287Z,100755.58
2023-01-21T08:29:43.388Z,100763.06
2023-01-21T08:32:10.373Z,100768.10
2023-01-21T08:34:37.390Z,100774.48
2023-01-21T08:37:04.403Z,100775.24
2023-01-21T08:39:31.411Z,100778.25
2023-01-21T08:41:58.396Z,100787.40
2023-01-21T08:44:25.383Z,100790.69
2023-01-21T08:46:52.348Z,100787.88
2023-01-21T08:49:19.427Z,100795.38
2023-01-21T08:51:46.736Z,100795.29
2023-01-21T08:54:13.667Z,100795.86
2023-01-21T08:56:40.711Z,100805.82
2023-01-21T08:59:07.724Z,100796.28
2023-01-21T09:01:38.089Z,100795.16
2023-01-21T09:04:05.194Z,100789.77
2023-01-21T09:06:32.368Z,100787.76
2023-01-21T09:08:59.710Z,100791.47
2023-01-21T09:11:27.511Z,100796.96
2023-01-21T09:13:54.838Z,100801.23
2023-01-21T09:16:22.972Z,100800.45
2023-01-21T09:18:49.954Z,100798.05
2023-01-21T09:21:17.450Z,100790.75
2023-01-21T09:23:44.563Z,100789.32
2023-01-21T09:26:19.572Z,100786.81
2023-01-21T09:28:51.116Z,100793.86
2023-01-21T09:31:18.738Z,100786.82
2023-01-21T09:33:46.964Z,100797.52
2023-01-21T09:36:19.509Z,100803.11
2023-01-21T09:38:46.954Z,100788.33
2023-01-21T09:41:30.088Z,100775.92
2023-01-21T09:44:03.230Z,100779.60
2023-01-21T09:46:43.699Z,100778.23
2023-01-21T09:49:15.957Z,100772.95
2023-01-21T09:51:52.396Z,100778.42
2023-01-21T09:54:27.892Z,100780.46
2023-01-21T09:57:07.088Z,100788.73
2023-01-21T10:00:05.671Z,100778.30
2023-01-21T10:02:48.383Z,100778.79
2023-01-21T10:05:25.633Z,100772.52
2023-01-21T10:08:11.505Z,100774.89
2023-01-21T10:10:51.279Z,100775.95
2023-01-21T10:13:38.013Z,100791.45
2023-01-21T10:16:39.171Z,100783.09
2023-01-21T10:19:06.171Z,100783.96
2023-01-21T10:21:33.257Z,100787.40
2023-01-21T10:24:10.680Z,100794.15
2023-01-21T10:26:37.728Z,100783.19
2023-01-21T10:29:04.722Z,100786.35
2023-01-21T10:31:40.977Z,100794.16
2023-01-21T10:34:13.276Z,100792.94
2023-01-21T10:37:18.669Z,100793.65
2023-01-21T10:40:08.181Z,100796.55
2023-01-21T10:42:41.533Z,100791.39
2023-01-21T10:45:24.091Z,100784.61
2023-01-21T10:47:59.302Z,100786.66
2023-01-21T10:50:32.248Z,100793.38
2023-01-21T10:53:25.669Z,100796.77
2023-01-21T10:56:39.755Z,100799.10
2023-01-21T10:59:09.396Z,100789.12
2023-01-21T11:01:38.378Z,100794.42
2023-01-21T11:04:27.314Z,100802.28
2023-01-21T11:07:08.903Z,100810.48
2023-01-21T11:09:38.870Z,100806.73
2023-01-21T11:12:06.370Z,100808.30
2023-01-21T11:14:34.112Z,100813.08
2023-01-21T11:17:01.448Z,100820.91
2023-01-21T11:19:31.117Z,100815.52
2023-01-21T11:22:06.245Z,100820.58
2023-01-21T11:24:47.094Z,100813.31
2023-01-21T11:27:39.809Z,100801.62
2023-01-21T11:30:26.113Z,100796.71
2023-01-21T11:32:55.169Z,100790.46
2023-01-21T11:35:22.776Z,100789.27
2023-01-21T11:37:49.807Z,100798.98
2023-01-21T11:40:25.041Z,100808.78
2023-01-21T11:42:54.641Z,100814.48
2023-01-21T11:45:30.198Z,100815.46
2023-01-21T11:47:58.154Z,100809.73
2023-01-21T11:50:36.034Z,100797.57
2023-01-21T11:53:19.030Z,100803.70
2023-01-21T11:55:54.673Z,100821.33
2023-01-21T12:10:19.841Z,100844.08
2023-01-21T12:12:56.688Z,100847.66
2023-01-21T12:15:43.055Z,100847.85
2023-01-21T12:18:51.305Z,100848.38
2023-01-21T12:21:21.515Z,100849.48
2023-01-21T12:23:56.924Z,100850.85
2023-01-21T12:26:41.543Z,100856.46
2023-01-21T12:29:23.929Z,100863.50
2023-01-21T12:31:54.705Z,100870.47
2023-01-21T12:34:30.464Z,100883.45
2023-01-21T12:37:03.792Z,100899.02
2023-01-21T12:39:37.168Z,100906.07
2023-01-21T12:42:19.071Z,100909.08
2023-01-21T12:44:56.629Z,100915.40
2023-01-21T12:47:34.674Z,100913.94
2023-01-21T12:50:14.270Z,100918.67
2023-01-21T12:52:56.127Z,100922.59
2023-01-21T12:56:03.381Z,100922.02
2023-01-21T12:58:32.699Z,100919.42
2023-01-21T13:01:28.591Z,100917.85
2023-01-21T13:03:59.975Z,100914.52
2023-01-21T13:06:52.835Z,100915.05
2023-01-21T13:09:35.209Z,100924.04
2023-01-21T13:12:05.173Z,100931.58
2023-01-21T13:14:37.955Z,100934.64
2023-01-21T13:17:25.278Z,100941.31
2023-01-21T13:19:52.343Z,100938.75
2023-01-21T13:22:37.625Z,100940.30
2023-01-21T13:25:26.209Z,100944.75
2023-01-21T13:28:05.555Z,100941.41
2023-01-21T13:30:55.256Z,100942.95
2023-01-21T13:33:34.833Z,100934.94
2023-01-21T13:36:24.034Z,100931.20
2023-01-21T13:39:00.234Z,100937.77
2023-01-21T13:41:56.712Z,100944.59
2023-01-21T13:44:57.248Z,100950.89
2023-01-21T13:47:42.582Z,100964.40
2023-01-21T13:50:18.091Z,100968.31
2023-01-21T13:53:13.372Z,100980.12
2023-01-21T13:56:00.599Z,100981.11
2023-01-21T13:58:47.764Z,100985.20
2023-01-21T14:01:28.834Z,100988.18
2023-01-21T14:04:18.321Z,100993.52
2023-01-21T14:06:56.793Z,100995.20
2023-01-21T14:09:48.306Z,100996.02
2023-01-21T14:12:31.826Z,101003.30
2023-01-21T14:15:01.889Z,101006.14
2023-01-21T14:17:50.931Z,101009.91
2023-01-21T14:20:36.344Z,101008.55
2023-01-21T14:23:28.200Z,101011.96
2023-01-21T14:26:03.413Z,101018.80
2023-01-21T14:28:42.696Z,101022.54
2023-01-21T14:31:15.072Z,101032.05
2023-01-21T14:33:57.857Z,101037.83
2023-01-21T14:36:57.460Z,101048.23
2023-01-21T14:40:01.150Z,101048.86
2023-01-21T14:43:00.647Z,101049.70
2023-01-21T14:45:49.635Z,101050.55
2023-01-21T14:48:34.123Z,101052.72
2023-01-21T14:51:12.210Z,101060.24
2023-01-21T14:53:50.221Z,101063.81
2023-01-21T14:56:23.225Z,101068.23
2023-01-21T14:59:12.365Z,101070.30
2023-01-21T15:01:42.981Z,101080.33
2023-01-21T15:04:27.814Z,101086.52
2023-01-21T15:07:02.307Z,101083.82
2023-01-21T15:09:32.241Z,101080.97
2023-01-21T15:12:01.679Z,101086.11
2023-01-21T15:14:30.793Z,101089.61
2023-01-21T15:16:57.772Z,101094.90
2023-01-21T15:19:24.790Z,101094.86
2023-01-21T15:22:17.701Z,101100.60
2023-01-21T15:25:19.638Z,101107.90
2023-01-21T15:28:25.209Z,101112.63
2023-01-21T15:31:00.279Z,101113.61
2023-01-21T15:33:27.800Z,101114.67
2023-01-21T15:35:54.826Z,101118.20
2023-01-21T15:38:21.777Z,101121.50
2023-01-21T15:41:01.109Z,101127.30
2023-01-21T15:43:51.847Z,101127.31
2023-01-21T15:46:28.250Z,101133.58
2023-01-21T15:48:58.321Z,101133.24
2023-01-21T15:52:07.515Z,101137.00
2023-01-21T15:54:48.538Z,101138.61
2023-01-21T15:57:43.631Z,101142.54
2023-01-21T16:00:42.296Z,101142.17
2023-01-21T16:03:29.381Z,101148.45
2023-01-21T16:06:06.055Z,101151.58
2023-01-21T16:08:46.369Z,101151.56
2023-01-21T16:11:16.775Z,101155.05
2023-01-21T16:13:53.851Z,101157.85
2023-01-21T16:16:36.231Z,101162.09
2023-01-21T16:19:04.450Z,101162.37
2023-01-21T16:21:35.517Z,101167.46
2023-01-21T16:24:12.102Z,101173.98
2023-01-21T16:26:39.258Z,101177.61
2023-01-21T16:29:13.948Z,101188.73
2023-01-21T16:31:51.908Z,101192.80
2023-01-21T16:34:39.155Z,101192.14
2023-01-21T16:37:07.007Z,101195.78
2023-01-21T16:39:34.006Z,101201.40
2023-01-21T16:42:05.820Z,101196.98
2023-01-21T16:44:33.432Z,101200.52
2023-01-21T16:47:00.407Z,101202.71
2023-01-21T16:49:27.403Z,101204.05
2023-01-21T16:51:57.260Z,101204.91
2023-01-21T16:54:31.705Z,101205.27
2023-01-21T16:56:59.684Z,101211.55
2023-01-21T16:59:40.810Z,101216.02
2023-01-21T17:02:16.291Z,101216.27
2023-01-21T17:04:43.431Z,101222.36
2023-01-21T17:07:39.183Z,101227.85
2023-01-21T17:10:22.559Z,101231.09
2023-01-21T17:13:16.272Z,101234.67
2023-01-21T17:16:03.704Z,101234.34
2023-01-21T17:18:33.118Z,101244.70
2023-01-21T17:21:07.319Z,101247.34
2023-01-21T17:23:46.998Z,101251.20
2023-01-21T17:26:17.183Z,101252.43
2023-01-21T17:29:44.616Z,101253.27
2023-01-21T17:32:32.473Z,101261.65
2023-01-21T17:35:12.928Z,101261.39
2023-01-21T17:37:44.360Z,101266.48
2023-01-21T17:40:25.440Z,101263.85
2023-01-21T17:42:52.546Z,101270.84
2023-01-21T17:45:27.537Z,101274.23
2023-01-21T17:48:08.739Z,101271.23
2023-01-21T17:50:37.536Z,101280.13
2023-01-21T17:53:07.469Z,101286.02
2023-01-21T17:55:36.966Z,101282.88
2023-01-21T17:58:05.972Z,101281.74
2023-01-21T18:00:42.018Z,101285.19
2023-01-21T18:03:10.749Z,101283.02
2023-01-21T18:05:38.670Z,101288.79
2023-01-21T18:08:15.612Z,101292.33
2023-01-21T18:10:43.477Z,101297.33
2023-01-21T18:13:15.149Z,101292.38
2023-01-21T18:15:44.308Z,101296.83
2023-01-21T18:18:17.098Z,101297.53
2023-01-21T18:20:44.365Z,101303.69
2023-01-21T18:23:11.782Z,101302.91
2023-01-21T18:25:39.700Z,101304.73
2023-01-21T18:28:17.882Z,101308.65
2023-01-21T18:30:45.185Z,101311.08
2023-01-21T18:33:12.740Z,101315.09
2023-01-21T18:35:40.562Z,101315.96
2023-01-21T18:38:15.494Z,101317.79
2023-01-21T18:40:42.722Z,101314.39
2023-01-21T18:43:10.111Z,101316.42
2023-01-21T18:45:37.122Z,101322.65
2023-01-21T18:48:04.213Z,101326.29
2023-01-21T18:50:31.426Z,101327.59
2023-01-21T18:52:58.439Z,101328.11
2023-01-21T18:55:27.293Z,101332.79
2023-01-21T18:57:54.849Z,101331.15
2023-01-21T19:00:27.031Z,101336.90
2023-01-21T19:02:54.873Z,101339.73
2023-01-21T19:05:23.095Z,101338.28
2023-01-21T19:07:50.312Z,101339.65
2023-01-21T19:10:19.953Z,101342.13
2023-01-21T19:12:47.754Z,101350.98
2023-01-21T19:15:22.364Z,101354.84
2023-01-21T19:17:49.574Z,101362.73
2023-01-21T19:20:18.676Z,101366.34
2023-01-21T19:22:46.483Z,101371.74
2023-01-21T19:25:13.803Z,101374.33
2023-01-21T19:27:46.055Z,101378.49
2023-01-21T19:30:23.217Z,101379.92
2023-01-21T19:32:51.197Z,101379.77
2023-01-21T19:35:20.836Z,101382.33
2023-01-21T19:37:50.948Z,101384.20
2023-01-21T19:40:22.552Z,101387.70
2023-01-21T19:42:49.539Z,101384.72
2023-01-21T19:45:17.008Z,101390.27
2023-01-21T19:47:47.782Z,101391.78
2023-01-21T19:50:23.000Z,101396.18
2023-01-21T19:52:51.080Z,101394.62
2023-01-21T19:55:23.211Z,101396.55
2023-01-21T19:57:56.808Z,101399.58
2023-01-21T20:50:33.859Z,101459.50
2023-01-21T20:53:01.341Z,101463.64
2023-01-21T20:55:28.497Z,101467.91
2023-01-21T20:57:55.496Z,101464.11
2023-01-21T21:00:28.054Z,101469.36
2023-01-21T21:02:55.881Z,101470.70
2023-01-21T21:05:23.970Z,101476.04
2023-01-21T21:07:51.062Z,101479.05
2023-01-21T21:10:22.059Z,101483.38
2023-01-21T21:12:49.428Z,101484.66
2023-01-21T21:15:17.212Z,101486.13
2023-01-21T21:17:44.406Z,101488.23
2023-01-21T21:20:20.005Z,101489.19
2023-01-21T21:22:47.366Z,101491.08
2023-01-21T21:25:19.180Z,101494.83
2023-01-21T21:27:46.620Z,101492.12
2023-01-21T21:30:18.131Z,101497.35
2023-01-21T21:32:45.097Z,101495.34
2023-01-21T21:35:44.469Z,101500.20
2023-01-21T21:38:18.593Z,101504.82
2023-01-21T21:40:46.906Z,101504.26
2023-01-21T21:43:35.043Z,101507.11
2023-01-21T21:46:26.915Z,101505.30
2023-01-21T21:48:55.274Z,101508.26
2023-01-21T21:51:22.725Z,101509.32
2023-01-21T21:53:50.032Z,101512.60
2023-01-21T21:56:22.844Z,101519.98
2023-01-21T21:58:50.218Z,101525.78
2023-01-21T22:01:25.348Z,101525.45
2023-01-21T22:03:52.851Z,101524.27
2023-01-21T22:06:21.618Z,101525.91
2023-01-21T22:08:48.837Z,101527.08
2023-01-21T22:11:18.012Z,101525.38
2023-01-21T22:13:50.314Z,101529.17
2023-01-21T22:16:19.423Z,101532.50
2023-01-21T22:18:46.541Z,101533.90
2023-01-21T22:21:13.519Z,101535.86
2023-01-21T22:23:40.495Z,101534.16
2023-01-21T22:26:09.352Z,101533.85
2023-01-21T22:28:36.564Z,101533.40
2023-01-21T22:31:04.837Z,101534.23
2023-01-21T22:33:33.196Z,101540.11
2023-01-21T22:36:07.485Z,101544.42
2023-01-21T22:38:34.938Z,101545.37
2023-01-21T22:41:02.028Z,101546.51
2023-01-21T22:43:29.697Z,101546.63
2023-01-21T22:45:57.150Z,101553.36
2023-01-21T22:48:24.354Z,101555.04
2023-01-21T22:50:57.626Z,101557.93
2023-01-21T22:53:24.814Z,101558.77
2023-01-21T22:56:03.305Z,101557.98
2023-01-21T22:58:31.300Z,101557.41
2023-01-21T23:00:58.868Z,101561.20
2023-01-21T23:03:26.071Z,101563.33
2023-01-21T23:05:53.270Z,101569.77
2023-01-21T23:08:20.493Z,101571.05
2023-01-21T23:10:47.897Z,101576.84
2023-01-21T23:13:15.337Z,101577.88
2023-01-21T23:15:48.150Z,101578.65
2023-01-21T23:18:15.287Z,101580.82
2023-01-21T23:20:43.602Z,101583.67
2023-01-21T23:23:11.015Z,101585.88
2023-01-21T23:25:42.227Z,101590.17
2023-01-21T23:28:12.008Z,101593.39
2023-01-21T23:30:39.045Z,101598.86
2023-01-21T23:33:07.435Z,101599.80
2023-01-21T23:35:34.681Z,101605.55
2023-01-21T23:38:02.429Z,101613.62
2023-01-21T23:40:29.487Z,101617.42
2023-01-21T23:42:57.347Z,101619.39
2023-01-21T23:45:24.393Z,101626.07
2023-01-21T23:47:51.549Z,101627.83
2023-01-21T23:50:20.282Z,101626.80
2023-01-21T23:52:47.486Z,101633.52
2023-01-21T23:55:15.057Z,101632.15
2023-01-21T23:57:42.019Z,101636.70
